Darstellungsparameter: Aktuell verwendete Einstellungen:
Skalierung der Graphiken ... ?
xyx+y,   Skalierungsfaktor:      Skalierung: Modus: x, Faktor: 1
Darstellungszeitraum ... ?
Vom - - bis: - -   Zeitraum: 22.05.2020 - 22.05.2020
Min/Max/Avg-Anzeige ... ?
Zeige MMA aktuell
Zeige MMA Monat
Zeige MMA alles
Zeige --A aktuell
Zeige --A Monat
Zeige --A alles
Keine MMA-Anzeige
MMA:
Keine MMA-Graphiken
MMA-Basis: 22.05.2020 - 22.05.2020
Quicknavigation für Darstellung... ?
Tage:      1T, 2T, 3T, 5T -1T -2T -3T -5T +1T +2T +3T +5T
Wochen: 1W, 2W, 3W -1W -2W -3W +1W +2W +3W
Monate: 1M, 3M, 6M -1M -3M -6M +1M +3M +6M
Jahre:    1J, 3J, 5J, 10J -1J -3J -5J -10J +1J +3J +5J +10J
Nutze für die Darstellung ... ?
Originaldaten oder Mittelwerte auf ...
Stundenbasis Tagesbasis Wochenbasis
Monatsbasis Jahresbasis      Datenbasis: Original-Daten
Darstellen als:
Statistik (Auto) Statistik J:M      Darstellung:
Zur Graphik,    zurück zur Übersicht aller Sensoren.
 
Tabellarische Datenbersicht: ?
 
Sensor: Nr:Datum:Temp:Feuchte:Taupunkt:
Aussen-T/F 1 22-05-2020 00:00:00 18.1 C 75 % 13.6 C
2 22-05-2020 00:05:00 17.9 C 75 % 13.41 C
3 22-05-2020 00:10:00 17.9 C 75 % 13.41 C
4 22-05-2020 00:15:00 17.8 C 75 % 13.31 C
5 22-05-2020 00:20:00 17.7 C 76 % 13.42 C
6 22-05-2020 00:25:00 17.6 C 76 % 13.32 C
7 22-05-2020 00:30:00 17.5 C 76 % 13.23 C
8 22-05-2020 00:35:00 17.4 C 76 % 13.13 C
9 22-05-2020 00:40:00 17.4 C 77 % 13.33 C
10 22-05-2020 00:45:00 17.3 C 77 % 13.23 C
11 22-05-2020 00:50:00 17.2 C 77 % 13.14 C
12 22-05-2020 00:55:00 16.9 C 77 % 12.84 C
13 22-05-2020 01:00:00 16.8 C 78 % 12.94 C
14 22-05-2020 01:05:00 16.7 C 78 % 12.85 C
15 22-05-2020 01:10:00 16.6 C 79 % 12.95 C
16 22-05-2020 01:15:00 16.4 C 79 % 12.75 C
17 22-05-2020 01:20:00 16.3 C 79 % 12.65 C
18 22-05-2020 01:25:00 16.3 C 80 % 12.85 C
19 22-05-2020 01:30:00 16.2 C 80 % 12.75 C
20 22-05-2020 01:35:00 16.1 C 80 % 12.65 C
21 22-05-2020 01:40:00 15.9 C 81 % 12.65 C
22 22-05-2020 01:45:00 15.9 C 81 % 12.65 C
23 22-05-2020 01:50:00 15.8 C 81 % 12.55 C
24 22-05-2020 01:55:00 15.7 C 82 % 12.64 C
25 22-05-2020 02:00:00 15.6 C 83 % 12.72 C
Sensor: Nr:Datum:Temp:Feuchte:Taupunkt:
Aussen-T/F 26 22-05-2020 02:05:00 15.6 C 83 % 12.72 C
27 22-05-2020 02:10:00 15.5 C 83 % 12.63 C
28 22-05-2020 02:15:00 15.4 C 83 % 12.53 C
29 22-05-2020 02:20:00 15.3 C 84 % 12.61 C
30 22-05-2020 02:25:00 15.3 C 84 % 12.61 C
31 22-05-2020 02:30:00 15.3 C 85 % 12.79 C
32 22-05-2020 02:35:00 15.2 C 85 % 12.7 C
33 22-05-2020 02:40:00 15.2 C 85 % 12.7 C
34 22-05-2020 02:45:00 15.1 C 85 % 12.6 C
35 22-05-2020 02:50:00 15.1 C 85 % 12.6 C
36 22-05-2020 02:55:00 15 C 85 % 12.5 C
37 22-05-2020 03:00:00 14.9 C 85 % 12.4 C
38 22-05-2020 03:05:00 14.9 C 86 % 12.58 C
39 22-05-2020 03:10:00 14.8 C 86 % 12.48 C
40 22-05-2020 03:15:00 14.8 C 86 % 12.48 C
41 22-05-2020 03:20:00 14.8 C 86 % 12.48 C
42 22-05-2020 03:25:00 14.7 C 86 % 12.38 C
43 22-05-2020 03:30:00 14.6 C 86 % 12.29 C
44 22-05-2020 03:35:00 14.5 C 86 % 12.19 C
45 22-05-2020 03:40:00 14.4 C 86 % 12.09 C
46 22-05-2020 03:45:00 14.4 C 86 % 12.09 C
47 22-05-2020 03:50:00 14.3 C 86 % 11.99 C
48 22-05-2020 03:55:00 14.2 C 86 % 11.89 C
49 22-05-2020 04:00:00 14.1 C 87 % 11.97 C
50 22-05-2020 04:05:00 13.9 C 87 % 11.77 C
Sensor: Nr:Datum:Temp:Feuchte:Taupunkt:
Aussen-T/F 51 22-05-2020 04:10:00 13.8 C 87 % 11.68 C
52 22-05-2020 04:15:00 13.7 C 88 % 11.75 C
53 22-05-2020 04:20:00 13.7 C 89 % 11.92 C
54 22-05-2020 04:25:00 13.6 C 89 % 11.82 C
55 22-05-2020 04:30:00 13.6 C 89 % 11.82 C
56 22-05-2020 04:35:00 13.4 C 89 % 11.63 C
57 22-05-2020 04:40:00 13.4 C 89 % 11.63 C
58 22-05-2020 04:45:00 13.3 C 89 % 11.53 C
59 22-05-2020 04:50:00 13.3 C 90 % 11.7 C
60 22-05-2020 04:55:00 13.2 C 90 % 11.6 C
61 22-05-2020 05:00:00 13.2 C 90 % 11.6 C
62 22-05-2020 05:05:00 13.2 C 90 % 11.6 C
63 22-05-2020 05:10:00 13.1 C 91 % 11.67 C
64 22-05-2020 05:15:00 13.1 C 91 % 11.67 C
65 22-05-2020 05:20:00 13 C 91 % 11.57 C
66 22-05-2020 05:25:00 13 C 91 % 11.57 C
67 22-05-2020 05:30:00 12.9 C 91 % 11.47 C
68 22-05-2020 05:35:00 12.8 C 91 % 11.37 C
69 22-05-2020 05:40:00 12.8 C 91 % 11.37 C
70 22-05-2020 05:45:00 12.8 C 92 % 11.53 C
71 22-05-2020 05:50:00 12.7 C 92 % 11.43 C
72 22-05-2020 05:55:00 12.8 C 92 % 11.53 C
73 22-05-2020 06:00:00 12.8 C 92 % 11.53 C
74 22-05-2020 06:05:00 12.8 C 92 % 11.53 C
75 22-05-2020 06:10:00 12.8 C 93 % 11.7 C
Sensor: Nr:Datum:Temp:Feuchte:Taupunkt:
Aussen-T/F 76 22-05-2020 06:15:00 12.9 C 93 % 11.8 C
77 22-05-2020 06:20:00 13.1 C 93 % 11.99 C
78 22-05-2020 06:25:00 13.1 C 93 % 11.99 C
79 22-05-2020 06:30:00 13.2 C 93 % 12.09 C
80 22-05-2020 06:35:00 13.3 C 93 % 12.19 C
81 22-05-2020 06:40:00 13.5 C 94 % 12.55 C
82 22-05-2020 06:45:00 13.7 C 94 % 12.75 C
83 22-05-2020 06:50:00 13.8 C 94 % 12.85 C
84 22-05-2020 06:55:00 14 C 94 % 13.05 C
85 22-05-2020 07:00:00 14.2 C 94 % 13.25 C
86 22-05-2020 07:05:00 14.3 C 94 % 13.35 C
87 22-05-2020 07:10:00 14.4 C 93 % 13.28 C
88 22-05-2020 07:15:00 14.6 C 93 % 13.48 C
89 22-05-2020 07:20:00 14.7 C 93 % 13.58 C
90 22-05-2020 07:25:00 14.9 C 93 % 13.78 C
91 22-05-2020 07:30:00 15 C 93 % 13.88 C
92 22-05-2020 07:35:00 15.2 C 92 % 13.91 C
93 22-05-2020 07:40:00 15.3 C 92 % 14.01 C
94 22-05-2020 07:45:00 15.4 C 91 % 13.94 C
95 22-05-2020 07:50:00 15.6 C 91 % 14.14 C
96 22-05-2020 07:55:00 15.8 C 90 % 14.16 C
97 22-05-2020 08:00:00 16 C 90 % 14.36 C
98 22-05-2020 08:05:00 16.2 C 89 % 14.39 C
99 22-05-2020 08:10:00 16.4 C 88 % 14.41 C
100 22-05-2020 08:15:00 16.7 C 86 % 14.35 C
Sensor: Nr:Datum:Temp:Feuchte:Taupunkt:
Aussen-T/F 101 22-05-2020 08:20:00 17.1 C 85 % 14.56 C
102 22-05-2020 08:25:00 17.4 C 84 % 14.67 C
103 22-05-2020 08:30:00 17.7 C 84 % 14.96 C
104 22-05-2020 08:35:00 18.1 C 81 % 14.79 C
105 22-05-2020 08:40:00 18.4 C 80 % 14.89 C
106 22-05-2020 08:45:00 18.7 C 79 % 14.99 C
107 22-05-2020 08:50:00 18.9 C 79 % 15.18 C
108 22-05-2020 08:55:00 19.1 C 78 % 15.18 C
109 22-05-2020 09:00:00 19.3 C 77 % 15.17 C
110 22-05-2020 09:05:00 19.3 C 77 % 15.17 C
111 22-05-2020 09:10:00 19.4 C 76 % 15.06 C
112 22-05-2020 09:15:00 19.6 C 76 % 15.26 C
113 22-05-2020 09:20:00 19.8 C 76 % 15.45 C
114 22-05-2020 09:25:00 19.9 C 75 % 15.34 C
115 22-05-2020 09:30:00 20.1 C 74 % 15.32 C
116 22-05-2020 09:35:00 20.1 C 74 % 15.32 C
117 22-05-2020 09:40:00 20.2 C 75 % 15.63 C
118 22-05-2020 09:45:00 20.3 C 75 % 15.72 C
119 22-05-2020 09:50:00 20.4 C 75 % 15.82 C
120 22-05-2020 09:55:00 20.6 C 74 % 15.8 C
121 22-05-2020 10:00:00 20.7 C 74 % 15.9 C
122 22-05-2020 10:05:00 20.9 C 74 % 16.09 C
123 22-05-2020 10:10:00 21.1 C 73 % 16.07 C
124 22-05-2020 10:15:00 21.3 C 73 % 16.26 C
125 22-05-2020 10:20:00 21.5 C 72 % 16.24 C
Sensor: Nr:Datum:Temp:Feuchte:Taupunkt:
Aussen-T/F 126 22-05-2020 10:25:00 21.7 C 72 % 16.43 C
127 22-05-2020 10:30:00 21.8 C 71 % 16.31 C
128 22-05-2020 10:35:00 21.9 C 71 % 16.4 C
129 22-05-2020 10:40:00 21.9 C 71 % 16.4 C
130 22-05-2020 10:45:00 22.1 C 71 % 16.6 C
131 22-05-2020 10:50:00 22.3 C 70 % 16.56 C
132 22-05-2020 10:55:00 22.6 C 70 % 16.85 C
133 22-05-2020 11:00:00 22.8 C 69 % 16.82 C
134 22-05-2020 11:05:00 23 C 69 % 17.01 C
135 22-05-2020 11:10:00 23.2 C 67 % 16.73 C
136 22-05-2020 11:15:00 23.4 C 66 % 16.69 C
137 22-05-2020 11:20:00 23.5 C 66 % 16.78 C
138 22-05-2020 11:25:00 23.7 C 67 % 17.21 C
139 22-05-2020 11:30:00 23.8 C 64 % 16.58 C
140 22-05-2020 11:35:00 23.9 C 63 % 16.43 C
141 22-05-2020 11:40:00 24 C 63 % 16.52 C
142 22-05-2020 11:45:00 24.1 C 63 % 16.62 C
143 22-05-2020 11:50:00 24.3 C 62 % 16.55 C
144 22-05-2020 11:55:00 24.4 C 61 % 16.39 C
145 22-05-2020 12:00:00 24.4 C 60 % 16.13 C
146 22-05-2020 12:05:00 24.4 C 60 % 16.13 C
147 22-05-2020 12:10:00 24.5 C 61 % 16.49 C
148 22-05-2020 12:15:00 24.4 C 60 % 16.13 C
149 22-05-2020 12:20:00 24.4 C 62 % 16.65 C
150 22-05-2020 12:25:00 24.5 C 60 % 16.23 C
Sensor: Nr:Datum:Temp:Feuchte:Taupunkt:
Aussen-T/F 151 22-05-2020 12:30:00 24.6 C 61 % 16.58 C
152 22-05-2020 12:35:00 24.5 C 61 % 16.49 C
153 22-05-2020 12:40:00 24.6 C 61 % 16.58 C
154 22-05-2020 12:45:00 24.6 C 61 % 16.58 C
155 22-05-2020 12:50:00 24.6 C 63 % 17.09 C
156 22-05-2020 12:55:00 24.7 C 61 % 16.67 C
157 22-05-2020 13:00:00 24.7 C 64 % 17.43 C
158 22-05-2020 13:05:00 24.7 C 63 % 17.18 C
159 22-05-2020 13:10:00 24.7 C 62 % 16.93 C
160 22-05-2020 13:15:00 24.8 C 62 % 17.02 C
161 22-05-2020 13:20:00 24.9 C 61 % 16.86 C
162 22-05-2020 13:25:00 24.9 C 60 % 16.6 C
163 22-05-2020 13:30:00 25.1 C 66 % 18.3 C
164 22-05-2020 13:35:00 25.3 C 59 % 16.71 C
165 22-05-2020 13:40:00 25.4 C 59 % 16.81 C
166 22-05-2020 13:45:00 25.6 C 62 % 17.78 C
167 22-05-2020 13:50:00 25.8 C 58 % 16.91 C
168 22-05-2020 13:55:00 26 C 57 % 16.82 C
169 22-05-2020 14:00:00 26.1 C 59 % 17.46 C
170 22-05-2020 14:05:00 26.2 C 60 % 17.82 C
171 22-05-2020 14:10:00 26.2 C 58 % 17.28 C
172 22-05-2020 14:15:00 26.2 C 59 % 17.55 C
173 22-05-2020 14:20:00 26.3 C 58 % 17.38 C
174 22-05-2020 14:25:00 26.3 C 59 % 17.65 C
175 22-05-2020 14:30:00 26.4 C 57 % 17.19 C
Sensor: Nr:Datum:Temp:Feuchte:Taupunkt:
Aussen-T/F 176 22-05-2020 14:35:00 26.3 C 57 % 17.1 C
177 22-05-2020 14:40:00 26.2 C 57 % 17.01 C
178 22-05-2020 14:45:00 26.2 C 56 % 16.73 C
179 22-05-2020 14:50:00 26.3 C 56 % 16.82 C
180 22-05-2020 14:55:00 26.4 C 55 % 16.63 C
181 22-05-2020 15:00:00 26.3 C 55 % 16.54 C
182 22-05-2020 15:05:00 26.3 C 54 % 16.25 C
183 22-05-2020 15:10:00 26.5 C 54 % 16.44 C
184 22-05-2020 15:15:00 26.6 C 54 % 16.53 C
185 22-05-2020 15:20:00 26.8 C 54 % 16.71 C
186 22-05-2020 15:25:00 26.8 C 53 % 16.42 C
187 22-05-2020 15:30:00 26.6 C 53 % 16.23 C
188 22-05-2020 15:35:00 26.4 C 54 % 16.34 C
189 22-05-2020 15:40:00 26.2 C 55 % 16.45 C
190 22-05-2020 15:45:00 26.1 C 55 % 16.35 C
191 22-05-2020 15:50:00 25.9 C 55 % 16.17 C
192 22-05-2020 15:55:00 25.9 C 56 % 16.45 C
193 22-05-2020 16:00:00 25.9 C 56 % 16.45 C
194 22-05-2020 16:05:00 25.9 C 57 % 16.73 C
195 22-05-2020 16:10:00 25.9 C 55 % 16.17 C
196 22-05-2020 16:15:00 25.9 C 55 % 16.17 C
197 22-05-2020 16:20:00 25.9 C 55 % 16.17 C
198 22-05-2020 16:25:00 26.1 C 55 % 16.35 C
199 22-05-2020 16:30:00 26.2 C 56 % 16.73 C
200 22-05-2020 16:35:00 26.2 C 54 % 16.16 C
Sensor: Nr:Datum:Temp:Feuchte:Taupunkt:
Aussen-T/F 201 22-05-2020 16:40:00 26.2 C 56 % 16.73 C
202 22-05-2020 16:45:00 26.3 C 55 % 16.54 C
203 22-05-2020 16:50:00 26.3 C 56 % 16.82 C
204 22-05-2020 16:55:00 26.2 C 55 % 16.45 C
205 22-05-2020 17:00:00 26.2 C 56 % 16.73 C
206 22-05-2020 17:05:00 26.1 C 55 % 16.35 C
207 22-05-2020 17:10:00 26.1 C 55 % 16.35 C
208 22-05-2020 17:15:00 26.1 C 56 % 16.64 C
209 22-05-2020 17:20:00 26.2 C 56 % 16.73 C
210 22-05-2020 17:25:00 26.3 C 57 % 17.1 C
211 22-05-2020 17:30:00 26.4 C 58 % 17.47 C
212 22-05-2020 17:35:00 26.4 C 55 % 16.63 C
213 22-05-2020 17:40:00 26.4 C 57 % 17.19 C
214 22-05-2020 17:45:00 26.3 C 58 % 17.38 C
215 22-05-2020 17:50:00 26.2 C 57 % 17.01 C
216 22-05-2020 17:55:00 26.1 C 56 % 16.64 C
217 22-05-2020 18:00:00 25.9 C 57 % 16.73 C
218 22-05-2020 18:05:00 25.9 C 58 % 17 C
219 22-05-2020 18:10:00 25.8 C 59 % 17.18 C
220 22-05-2020 18:15:00 25.7 C 57 % 16.54 C
221 22-05-2020 18:20:00 25.6 C 61 % 17.52 C
222 22-05-2020 18:25:00 25.3 C 62 % 17.5 C
223 22-05-2020 18:30:00 25 C 64 % 17.72 C
224 22-05-2020 18:35:00 24.8 C 65 % 17.77 C
225 22-05-2020 18:40:00 24.7 C 66 % 17.92 C
Sensor: Nr:Datum:Temp:Feuchte:Taupunkt:
Aussen-T/F 226 22-05-2020 18:45:00 24.4 C 67 % 17.87 C
227 22-05-2020 18:50:00 24.2 C 67 % 17.68 C
228 22-05-2020 18:55:00 24.1 C 67 % 17.59 C
229 22-05-2020 19:00:00 24 C 66 % 17.26 C
230 22-05-2020 19:05:00 24 C 65 % 17.01 C
231 22-05-2020 19:10:00 24.1 C 64 % 16.86 C
232 22-05-2020 19:15:00 24.4 C 62 % 16.65 C
233 22-05-2020 19:20:00 24.6 C 63 % 17.09 C
234 22-05-2020 19:25:00 24.7 C 63 % 17.18 C
235 22-05-2020 19:30:00 24.7 C 64 % 17.43 C
236 22-05-2020 19:35:00 24.6 C 63 % 17.09 C
237 22-05-2020 19:40:00 24.4 C 65 % 17.39 C
238 22-05-2020 19:45:00 24.2 C 64 % 16.96 C
239 22-05-2020 19:50:00 23.9 C 65 % 16.92 C
240 22-05-2020 19:55:00 23.7 C 65 % 16.73 C
241 22-05-2020 20:00:00 23.5 C 66 % 16.78 C
242 22-05-2020 20:05:00 23.2 C 68 % 16.97 C
243 22-05-2020 20:10:00 22.7 C 70 % 16.95 C
244 22-05-2020 20:15:00 22.2 C 71 % 16.69 C
245 22-05-2020 20:20:00 21.7 C 73 % 16.65 C
246 22-05-2020 20:25:00 21.2 C 74 % 16.38 C
247 22-05-2020 20:30:00 20.8 C 76 % 16.41 C
248 22-05-2020 20:35:00 20.5 C 77 % 16.33 C
249 22-05-2020 20:40:00 20.2 C 79 % 16.44 C
250 22-05-2020 20:45:00 19.9 C 79 % 16.15 C
Sensor: Nr:Datum:Temp:Feuchte:Taupunkt:
Aussen-T/F 251 22-05-2020 20:50:00 19.7 C 79 % 15.96 C
252 22-05-2020 20:55:00 19.5 C 81 % 16.15 C
253 22-05-2020 21:00:00 19.3 C 82 % 16.15 C
254 22-05-2020 21:05:00 19 C 83 % 16.05 C
255 22-05-2020 21:10:00 18.8 C 84 % 16.04 C
256 22-05-2020 21:15:00 18.6 C 86 % 16.21 C
257 22-05-2020 21:20:00 18.4 C 86 % 16.02 C
258 22-05-2020 21:25:00 18.3 C 87 % 16.1 C
259 22-05-2020 21:30:00 18.2 C 87 % 16 C
260 22-05-2020 21:35:00 18.1 C 88 % 16.08 C
261 22-05-2020 21:40:00 18 C 89 % 16.16 C
262 22-05-2020 21:45:00 17.9 C 89 % 16.06 C
263 22-05-2020 21:50:00 17.8 C 90 % 16.14 C
264 22-05-2020 21:55:00 17.8 C 90 % 16.14 C
265 22-05-2020 22:00:00 17.7 C 90 % 16.04 C
266 22-05-2020 22:05:00 17.7 C 91 % 16.21 C
267 22-05-2020 22:10:00 17.6 C 91 % 16.11 C
268 22-05-2020 22:15:00 17.6 C 92 % 16.28 C
269 22-05-2020 22:20:00 17.6 C 92 % 16.28 C
270 22-05-2020 22:25:00 17.6 C 92 % 16.28 C
271 22-05-2020 22:30:00 17.5 C 92 % 16.19 C
272 22-05-2020 22:35:00 17.4 C 93 % 16.26 C
273 22-05-2020 22:40:00 17.4 C 93 % 16.26 C
274 22-05-2020 22:45:00 17.3 C 93 % 16.16 C
275 22-05-2020 22:50:00 17.3 C 93 % 16.16 C
Sensor: Nr:Datum:Temp:Feuchte:Taupunkt:
Aussen-T/F 276 22-05-2020 22:55:00 17.3 C 93 % 16.16 C
277 22-05-2020 23:00:00 17.3 C 93 % 16.16 C
278 22-05-2020 23:05:00 17.2 C 93 % 16.06 C
279 22-05-2020 23:10:00 17.2 C 93 % 16.06 C
280 22-05-2020 23:15:00 17.2 C 93 % 16.06 C
281 22-05-2020 23:20:00 17.2 C 94 % 16.23 C
282 22-05-2020 23:25:00 17.1 C 94 % 16.13 C
283 22-05-2020 23:30:00 17.1 C 94 % 16.13 C
284 22-05-2020 23:35:00 17.1 C 94 % 16.13 C
285 22-05-2020 23:40:00 17.1 C 94 % 16.13 C
286 22-05-2020 23:45:00 16.9 C 94 % 15.93 C
287 22-05-2020 23:50:00 16.9 C 94 % 15.93 C
288 22-05-2020 23:55:00 16.8 C 94 % 15.83 C

Legende:
   Min
   Max


Maximal/Minimal-Werte vom 22.05.2020 - 22.05.2020

Sensor Min Max Avg
Temp
(Aussen-T/F)
12.7 °C
22-05-2020  05:50:00
26.8 °C
22-05-2020  15:20:00
19.98 °C
Feuchte
(Aussen-T/F)
53 %
22-05-2020  15:25:00
94 %
22-05-2020  06:40:00
75.25 %
Taupunkt
(Aussen-T/F)
11.37 C
22-05-2020  05:35:00
18.3 C
22-05-2020  13:30:00
15.08 C

Die Daten stammen von einer Davis Vantage Pro 2 Wetter-Station und werden unter Linux mit der Software wview2wettercgi und aufbereitet. Alle Angaben erfolgen ohne Gewähr für ihre Vollständigkeit oder Richtigkeit.
Kontakt: Rainer Krienke krienke@uni-koblenz.de . Meine Webseiten an der Uni Koblenz oder privat.
Version: $Revision: 0.78 $